Terminal Aerodrome Forecast
Issued by NWS

Home | Current Version | Previous Version | Text Only | Print | Product List | Glossary On
Versions: 1 2 3 4 5 6 7 8 9 10 11 12 13 14 15 16
720
FTUS44 KCRP 291120
TAFLRD
TAF
KLRD 291120Z 2912/3012 14006KT P6SM SCT015 BKN200
     FM291500 15011KT P6SM SCT030 BKN200
     FM292000 14015G22KT P6SM SCT050 BKN250
     FM300500 14008KT P6SM FEW020=

USA.gov is the U.S. government's official web portal to all federal, state and local government web resources and services.